Time;durP1;ratioP1;P1;durP2;ratioP2;P2;SDS_P1;SDS_P2;PMS_P1;PMS_P2;Temp;Humidity;BMP_temperature;BMP_pressure;BME280_temperature;BME280_humidity;BME280_pressure;Samples;Min_cycle;Max_cycle;Signal;HPM_P1;HPM_P2
2023/06/08 00:00:13;;;;;;;12.18;4.07;;;13.30;99.90;;;;;;4992475;28;20487;-66
2023/06/08 00:02:39;;;;;;;9.50;3.80;;;13.30;99.90;;;;;;5011898;28;20038;-66
2023/06/08 00:05:07;;;;;;;9.10;3.58;;;13.30;99.90;;;;;;5012499;28;20069;-67
2023/06/08 00:07:34;;;;;;;10.93;4.18;;;13.20;99.90;;;;;;5011257;28;20064;-67
2023/06/08 00:10:00;;;;;;;11.23;3.53;;;13.20;99.90;;;;;;5006118;28;20069;-66
2023/06/08 00:12:28;;;;;;;8.43;4.35;;;13.20;99.90;;;;;;5017361;28;20040;-66
2023/06/08 00:14:54;;;;;;;9.00;3.75;;;13.20;99.90;;;;;;5001682;28;20038;-66
2023/06/08 00:17:21;;;;;;;10.38;4.15;;;13.20;99.90;;;;;;4999587;28;20320;-66
2023/06/08 00:19:46;;;;;;;;;;;13.20;99.90;;;;;;5011563;28;20098;-66
2023/06/08 00:22:13;;;;;;;13.20;4.57;;;13.20;99.90;;;;;;5012690;28;20117;-67
2023/06/08 00:24:39;;;;;;;10.90;4.38;;;13.20;99.90;;;;;;5115276;22;20419;-67
2023/06/08 00:27:06;;;;;;;11.73;5.00;;;13.20;99.90;;;;;;5015729;28;20092;-67
2023/06/08 00:29:33;;;;;;;8.55;4.30;;;13.20;99.90;;;;;;5016662;28;20434;-67
2023/06/08 00:31:59;;;;;;;11.48;4.80;;;13.20;99.90;;;;;;5004079;28;20256;-68
2023/06/08 00:34:25;;;;;;;;;;;13.20;99.90;;;;;;5021251;28;20512;-67
2023/06/08 00:36:51;;;;;;;12.50;5.32;;;13.20;99.90;;;;;;4999630;28;19921;-65
2023/06/08 00:39:16;;;;;;;17.92;5.97;;;13.10;99.90;;;;;;5019451;28;20038;-65
2023/06/08 00:41:42;;;;;;;10.40;4.87;;;13.20;99.90;;;;;;5008265;28;20495;-65
2023/06/08 00:44:08;;;;;;;12.50;5.90;;;13.20;99.90;;;;;;5006190;28;20045;-65
2023/06/08 00:46:36;;;;;;;12.90;5.97;;;13.20;99.90;;;;;;5003977;28;20151;-65
2023/06/08 00:49:03;;;;;;;15.07;5.88;;;13.10;99.90;;;;;;5014843;28;20084;-65
2023/06/08 00:51:36;;;;;;;10.90;5.43;;;13.20;99.90;;;;;;4979197;28;20173;-66
2023/06/08 00:54:02;;;;;;;16.63;5.80;;;13.10;99.90;;;;;;5014398;28;20125;-65
2023/06/08 00:56:32;;;;;;;13.05;6.13;;;13.20;99.90;;;;;;5013916;28;20049;-65
2023/06/08 00:59:03;;;;;;;13.02;5.25;;;13.00;99.90;;;;;;5019962;28;20067;-66
2023/06/08 01:01:35;;;;;;;11.15;4.85;;;13.10;99.90;;;;;;4996218;28;20049;-66
2023/06/08 01:04:09;;;;;;;13.27;5.28;;;13.10;99.90;;;;;;5000914;28;20173;-67
2023/06/08 01:06:48;;;;;;;8.23;4.85;;;13.10;99.90;;;;;;5012755;28;20042;-67
2023/06/08 01:09:36;;;;;;;12.75;4.43;;;13.10;99.90;;;;;;5012074;28;20191;-67
2023/06/08 01:12:27;;;;;;;14.48;4.38;;;13.10;99.90;;;;;;5018907;28;20076;-68
2023/06/08 01:15:30;;;;;;;11.50;4.80;;;13.10;99.90;;;;;;5014140;28;20423;-68
2023/06/08 01:18:04;;;;;;;9.95;4.00;;;13.10;99.90;;;;;;5005378;28;20046;-67
2023/06/08 01:21:07;;;;;;;12.43;4.90;;;13.10;99.90;;;;;;5008074;28;20045;-65
2023/06/08 01:24:12;;;;;;;10.95;4.03;;;13.10;99.90;;;;;;5017197;28;20495;-66
2023/06/08 01:26:42;;;;;;;10.10;4.40;;;13.10;99.90;;;;;;5020097;28;20069;-67
2023/06/08 01:29:10;;;;;;;14.88;4.63;;;13.00;99.90;;;;;;5020305;28;20072;-68
2023/06/08 01:31:38;;;;;;;11.68;4.32;;;13.00;99.90;;;;;;5020104;28;20439;-66
2023/06/08 01:34:10;;;;;;;10.25;4.28;;;13.00;99.90;;;;;;5001571;28;20446;-66
2023/06/08 01:36:54;;;;;;;8.02;3.83;;;13.10;99.90;;;;;;5001685;28;20042;-65
2023/06/08 01:39:43;;;;;;;8.95;4.68;;;13.10;99.90;;;;;;5023628;28;20045;-65
2023/06/08 01:42:11;;;;;;;11.52;4.40;;;13.00;99.90;;;;;;5007975;28;20045;-65
2023/06/08 01:44:45;;;;;;;11.52;3.92;;;13.10;99.90;;;;;;4996734;28;20068;-66
2023/06/08 01:47:16;;;;;;;8.90;3.95;;;13.10;99.90;;;;;;5009827;28;20380;-65
2023/06/08 01:49:43;;;;;;;11.70;4.75;;;13.10;99.90;;;;;;5005183;28;20551;-65
2023/06/08 01:52:09;;;;;;;14.50;4.15;;;13.10;99.90;;;;;;5022345;28;20052;-65
2023/06/08 01:54:35;;;;;;;12.65;4.63;;;13.10;99.90;;;;;;5024396;28;20263;-65
2023/06/08 01:57:02;;;;;;;10.98;3.88;;;13.10;99.90;;;;;;5003085;28;20056;-68
2023/06/08 01:59:28;;;;;;;11.68;4.28;;;13.10;99.90;;;;;;5019293;28;20052;-65
2023/06/08 02:01:53;;;;;;;15.13;4.28;;;13.10;99.90;;;;;;5021582;28;20250;-65
2023/06/08 02:04:19;;;;;;;13.70;4.18;;;13.10;99.90;;;;;;5001984;28;20207;-65
2023/06/08 02:06:45;;;;;;;16.58;4.13;;;13.10;99.90;;;;;;5014845;28;20073;-65
2023/06/08 02:09:10;;;;;;;12.10;4.97;;;13.10;99.90;;;;;;5013759;28;20120;-66
2023/06/08 02:11:39;;;;;;;15.18;4.97;;;13.10;99.90;;;;;;5017537;28;20184;-65
2023/06/08 02:14:05;;;;;;;12.55;4.20;;;13.10;99.90;;;;;;5007141;28;20099;-66
2023/06/08 02:16:33;;;;;;;8.50;4.18;;;13.10;99.90;;;;;;5011862;28;20407;-65
2023/06/08 02:19:00;;;;;;;13.27;4.68;;;13.20;99.90;;;;;;5014532;28;20165;-65
2023/06/08 02:21:26;;;;;;;8.52;4.38;;;13.10;99.90;;;;;;5005932;28;20490;-65
2023/06/08 02:23:51;;;;;;;12.57;4.93;;;13.10;99.90;;;;;;5006631;28;20049;-66
2023/06/08 02:26:17;;;;;;;9.27;4.67;;;13.10;99.90;;;;;;5000654;28;20076;-66
2023/06/08 02:28:43;;;;;;;13.57;4.97;;;13.10;99.90;;;;;;4999217;28;20291;-65
2023/06/08 02:31:09;;;;;;;15.52;4.90;;;13.20;99.90;;;;;;5017174;28;20045;-65
2023/06/08 02:33:34;;;;;;;12.47;5.23;;;13.10;99.90;;;;;;5005237;28;20034;-66
2023/06/08 02:36:00;;;;;;;12.52;4.68;;;13.10;99.90;;;;;;5003020;28;20382;-65
2023/06/08 02:38:26;;;;;;;7.50;4.85;;;13.10;99.90;;;;;;5005059;28;20800;-65
2023/06/08 02:40:52;;;;;;;;;;;13.10;99.90;;;;;;5021447;28;20399;-66
2023/06/08 02:43:19;;;;;;;11.85;4.50;;;13.10;99.90;;;;;;5019011;28;19928;-65
2023/06/08 02:45:45;;;;;;;11.98;5.60;;;13.10;99.90;;;;;;5002585;28;20050;-66
2023/06/08 02:48:10;;;;;;;13.75;5.28;;;13.10;99.90;;;;;;5010734;28;20084;-65
2023/06/08 02:50:36;;;;;;;15.60;5.30;;;13.10;99.90;;;;;;5001436;28;20742;-65
2023/06/08 02:53:02;;;;;;;13.70;5.30;;;13.10;99.90;;;;;;5015478;28;20383;-66
2023/06/08 02:55:34;;;;;;;12.18;5.13;;;13.10;99.90;;;;;;5014234;28;20037;-66
2023/06/08 02:58:01;;;;;;;10.88;4.75;;;13.10;99.90;;;;;;5002991;28;20049;-65
2023/06/08 03:00:26;;;;;;;;;;;13.10;99.90;;;;;;5001438;28;20259;-66
2023/06/08 03:02:52;;;;;;;11.88;4.82;;;13.10;99.90;;;;;;5015496;28;19939;-65
2023/06/08 03:05:17;;;;;;;11.60;4.90;;;13.10;99.90;;;;;;5005389;28;20045;-66
2023/06/08 03:07:43;;;;;;;10.40;4.32;;;13.10;99.90;;;;;;5019691;28;20517;-65
2023/06/08 03:10:09;;;;;;;12.43;5.03;;;13.10;99.90;;;;;;5017150;28;20476;-65
2023/06/08 03:12:35;;;;;;;15.57;5.25;;;13.10;99.90;;;;;;5001108;28;20128;-65
2023/06/08 03:15:00;;;;;;;15.18;5.03;;;13.20;99.90;;;;;;4999047;28;20209;-65
2023/06/08 03:17:27;;;;;;;13.67;5.20;;;13.10;99.90;;;;;;4996681;28;20038;-66
2023/06/08 03:19:55;;;;;;;10.32;4.60;;;13.10;99.90;;;;;;5024431;28;20270;-65
2023/06/08 03:22:21;;;;;;;10.82;5.22;;;13.20;99.90;;;;;;5001132;28;20056;-66
2023/06/08 03:24:50;;;;;;;8.82;4.85;;;13.10;99.90;;;;;;5021145;28;20046;-66
2023/06/08 03:27:16;;;;;;;11.85;4.65;;;13.20;99.90;;;;;;5000625;28;20052;-66
2023/06/08 03:29:42;;;;;;;;;;;13.20;99.90;;;;;;5024923;28;20518;-65
2023/06/08 03:32:08;;;;;;;12.70;4.75;;;13.20;99.90;;;;;;5018147;28;19924;-66
2023/06/08 03:34:34;;;;;;;15.23;4.75;;;13.20;99.90;;;;;;4996153;28;20544;-66
2023/06/08 03:37:00;;;;;;;14.40;5.30;;;13.20;99.90;;;;;;5011788;28;20053;-66
2023/06/08 03:39:26;;;;;;;11.18;5.45;;;13.20;99.90;;;;;;5004158;28;20045;-66
2023/06/08 03:41:51;;;;;;;11.65;5.13;;;13.20;99.90;;;;;;5012789;28;20064;-66
2023/06/08 03:44:17;;;;;;;6.63;4.30;;;13.20;99.90;;;;;;5003380;28;20047;-67
2023/06/08 03:46:44;;;;;;;8.88;3.53;;;13.20;99.90;;;;;;5016641;28;20385;-66
2023/06/08 03:49:10;;;;;;;7.72;4.32;;;13.20;99.90;;;;;;5003277;28;20095;-66
2023/06/08 03:51:37;;;;;;;10.40;4.40;;;13.20;99.90;;;;;;5012402;28;20435;-67
2023/06/08 03:54:03;;;;;;;10.48;4.05;;;13.10;99.90;;;;;;5016973;28;20754;-66
2023/06/08 03:56:29;;;;;;;10.95;3.60;;;13.10;99.90;;;;;;5019337;28;20087;-66
2023/06/08 03:58:56;;;;;;;9.35;3.40;;;13.20;99.90;;;;;;5013568;28;20049;-66
2023/06/08 04:01:22;;;;;;;7.65;3.85;;;13.10;99.90;;;;;;5000387;28;20052;-66
2023/06/08 04:03:50;;;;;;;10.35;4.00;;;13.10;99.90;;;;;;5017451;28;20120;-67
2023/06/08 04:06:16;;;;;;;10.80;4.38;;;13.10;99.90;;;;;;5016891;28;20468;-66
2023/06/08 04:08:44;;;;;;;8.95;3.80;;;13.10;99.90;;;;;;5017212;28;20073;-66
2023/06/08 04:11:11;;;;;;;9.20;3.40;;;13.10;99.90;;;;;;5016927;28;20045;-66
2023/06/08 04:13:38;;;;;;;;;;;13.10;99.90;;;;;;5009375;28;20124;-66
2023/06/08 04:16:08;;;;;;;10.90;3.22;;;13.10;99.90;;;;;;4998178;28;19917;-66
2023/06/08 04:18:35;;;;;;;7.88;2.90;;;13.10;99.90;;;;;;5003857;28;20096;-67
2023/06/08 04:21:01;;;;;;;12.43;3.38;;;13.10;99.90;;;;;;5001648;28;20049;-66
2023/06/08 04:23:27;;;;;;;10.43;3.50;;;13.10;99.90;;;;;;5016126;28;20042;-67
2023/06/08 04:25:54;;;;;;;9.20;3.30;;;13.10;99.90;;;;;;5001637;28;20053;-66
2023/06/08 04:28:21;;;;;;;10.00;3.28;;;13.20;99.90;;;;;;4997838;28;20047;-67
2023/06/08 04:30:48;;;;;;;13.10;3.10;;;13.20;99.90;;;;;;5003288;28;20054;-66
2023/06/08 04:33:15;;;;;;;6.40;3.50;;;13.20;99.90;;;;;;5016512;28;20038;-67
2023/06/08 04:35:41;;;;;;;9.05;3.13;;;13.20;99.90;;;;;;4999882;28;20124;-66
2023/06/08 04:38:16;;;;;;;10.27;3.28;;;13.20;99.90;;;;;;5021014;28;20080;-66
2023/06/08 04:40:48;;;;;;;12.45;3.63;;;13.20;99.90;;;;;;5022677;28;20046;-66
2023/06/08 04:43:13;;;;;;;10.52;3.13;;;13.30;99.90;;;;;;5000368;28;20034;-66
2023/06/08 04:45:43;;;;;;;9.52;3.20;;;13.30;99.90;;;;;;5002300;28;20383;-66
2023/06/08 04:48:10;;;;;;;8.52;3.40;;;13.30;99.90;;;;;;5012540;28;20499;-66
2023/06/08 04:50:37;;;;;;;8.80;3.33;;;13.30;99.90;;;;;;5023153;28;20034;-66
2023/06/08 04:53:05;;;;;;;6.80;2.80;;;13.40;99.90;;;;;;5022984;28;20052;-66
2023/06/08 04:55:31;;;;;;;9.68;3.10;;;13.40;99.90;;;;;;5019789;28;20442;-66
2023/06/08 04:57:57;;;;;;;10.48;3.22;;;13.40;99.90;;;;;;5001498;28;20052;-67
2023/06/08 05:00:23;;;;;;;7.75;3.08;;;13.40;99.90;;;;;;4998564;28;20045;-67
2023/06/08 05:02:49;;;;;;;6.65;3.45;;;13.40;99.90;;;;;;5017403;28;20603;-66
2023/06/08 05:05:15;;;;;;;6.80;3.03;;;13.40;99.90;;;;;;5005596;28;20116;-66
2023/06/08 05:07:42;;;;;;;8.52;2.50;;;13.50;99.90;;;;;;5004272;28;20141;-67
2023/06/08 05:10:08;;;;;;;11.05;2.80;;;13.50;99.90;;;;;;5015667;28;20045;-67
2023/06/08 05:12:33;;;;;;;7.20;2.85;;;13.50;99.90;;;;;;5001079;28;20480;-67
2023/06/08 05:15:00;;;;;;;8.85;3.35;;;13.50;99.90;;;;;;5015906;28;20129;-66
2023/06/08 05:17:25;;;;;;;;;;;13.50;99.90;;;;;;5024385;28;20077;-66
2023/06/08 05:19:51;;;;;;;8.25;3.28;;;13.50;99.90;;;;;;5020041;28;20457;-66
2023/06/08 05:22:17;;;;;;;7.50;3.03;;;13.60;99.90;;;;;;5019672;28;20034;-66
2023/06/08 05:24:43;;;;;;;12.40;3.33;;;13.60;99.90;;;;;;5000731;28;20054;-66
2023/06/08 05:27:08;;;;;;;7.75;3.13;;;13.60;99.90;;;;;;5001933;28;20522;-66
2023/06/08 05:29:34;;;;;;;12.30;3.72;;;13.70;99.90;;;;;;5009648;28;20384;-66
2023/06/08 05:32:00;;;;;;;7.72;3.42;;;13.70;99.90;;;;;;5000286;28;20045;-66
2023/06/08 05:34:26;;;;;;;;;;;13.70;99.90;;;;;;5003874;28;20395;-66
2023/06/08 05:36:53;;;;;;;6.97;3.00;;;13.80;99.90;;;;;;5019809;28;19923;-67
2023/06/08 05:39:18;;;;;;;8.40;3.55;;;13.80;99.90;;;;;;5003485;28;20049;-66
2023/06/08 05:41:44;;;;;;;9.70;3.53;;;13.90;99.90;;;;;;5013233;28;20500;-66
2023/06/08 05:44:10;;;;;;;8.00;2.87;;;13.90;99.90;;;;;;5025001;28;20314;-67
2023/06/08 05:46:35;;;;;;;12.07;3.35;;;13.90;99.90;;;;;;5012362;28;20893;-67
2023/06/08 05:49:01;;;;;;;7.25;3.75;;;13.90;99.90;;;;;;5019642;28;20500;-66
2023/06/08 05:51:27;;;;;;;11.90;3.30;;;13.90;99.90;;;;;;5009076;28;20037;-68
2023/06/08 05:53:52;;;;;;;10.40;3.35;;;13.90;99.90;;;;;;5020187;28;20038;-68
2023/06/08 05:56:18;;;;;;;9.48;3.42;;;13.90;99.90;;;;;;5020298;28;20049;-69
2023/06/08 05:58:43;;;;;;;9.55;3.10;;;13.90;99.90;;;;;;5006311;28;20333;-69
2023/06/08 06:01:09;;;;;;;13.23;3.73;;;14.00;99.90;;;;;;4997335;28;20339;-68
2023/06/08 06:03:35;;;;;;;11.13;3.92;;;14.00;99.90;;;;;;5020868;28;20041;-68
2023/06/08 06:06:01;;;;;;;8.38;3.80;;;14.00;99.90;;;;;;5019722;28;20045;-67
2023/06/08 06:08:27;;;;;;;12.52;3.67;;;14.10;99.90;;;;;;5004749;28;20045;-70
2023/06/08 06:10:53;;;;;;;7.47;3.53;;;14.10;99.90;;;;;;5003081;28;20065;-66
2023/06/08 06:13:18;;;;;;;7.43;3.30;;;14.10;99.90;;;;;;5019648;28;20464;-67
2023/06/08 06:15:44;;;;;;;9.30;3.10;;;14.20;99.90;;;;;;5003290;28;20057;-66
2023/06/08 06:18:10;;;;;;;9.90;3.15;;;14.30;99.90;;;;;;5018973;28;20120;-66
2023/06/08 06:20:35;;;;;;;11.48;3.10;;;14.30;99.90;;;;;;5016336;28;20045;-66
2023/06/08 06:23:01;;;;;;;7.93;2.72;;;14.40;99.90;;;;;;4999427;28;20198;-66
2023/06/08 06:25:27;;;;;;;9.82;2.85;;;14.50;99.90;;;;;;5004085;28;20442;-67
2023/06/08 06:27:52;;;;;;;13.65;3.08;;;14.50;99.90;;;;;;5017675;28;20095;-67
2023/06/08 06:30:18;;;;;;;7.80;2.53;;;14.60;99.90;;;;;;5000802;28;20096;-66
2023/06/08 06:32:44;;;;;;;8.55;3.17;;;14.70;99.90;;;;;;5006573;28;20046;-66
2023/06/08 06:35:12;;;;;;;5.07;2.25;;;14.80;99.90;;;;;;5001906;28;20045;-66
2023/06/08 06:37:38;;;;;;;9.20;2.67;;;14.80;99.90;;;;;;5018534;28;20115;-67
2023/06/08 06:40:04;;;;;;;10.05;2.85;;;14.70;99.90;;;;;;5018998;28;20049;-66
2023/06/08 06:42:31;;;;;;;12.25;2.97;;;14.70;99.90;;;;;;5016441;28;20128;-66
2023/06/08 06:44:57;;;;;;;;;;;14.70;99.90;;;;;;5007452;28;20057;-66
2023/06/08 06:47:23;;;;;;;11.73;3.20;;;14.70;99.90;;;;;;4994673;28;20343;-66
2023/06/08 06:49:49;;;;;;;13.43;3.72;;;14.70;99.90;;;;;;5020516;28;20361;-66
2023/06/08 06:52:14;;;;;;;10.30;3.70;;;14.70;99.90;;;;;;5024329;28;20107;-67
2023/06/08 06:54:40;;;;;;;9.07;2.88;;;14.80;99.90;;;;;;5014921;28;20368;-66
2023/06/08 06:57:07;;;;;;;8.70;3.97;;;14.90;99.90;;;;;;4997186;28;20949;-67
2023/06/08 06:59:34;;;;;;;10.80;3.55;;;14.90;99.90;;;;;;5012300;28;20092;-67
2023/06/08 07:02:00;;;;;;;11.25;3.63;;;15.00;99.90;;;;;;5011906;28;20655;-66
2023/06/08 07:04:26;;;;;;;13.43;4.43;;;15.00;99.90;;;;;;5017235;28;20041;-66
2023/06/08 07:06:52;;;;;;;12.02;3.70;;;15.10;99.90;;;;;;5023599;28;20041;-66
2023/06/08 07:09:21;;;;;;;;;;;15.20;99.90;;;;;;5000713;28;20096;-68
2023/06/08 07:11:47;;;;;;;7.75;3.25;;;15.20;99.90;;;;;;5000686;28;19917;-67
2023/06/08 07:14:14;;;;;;;8.80;3.53;;;15.30;99.90;;;;;;4999525;28;20399;-68
2023/06/08 07:16:39;;;;;;;11.82;3.10;;;15.40;99.90;;;;;;5005414;28;20375;-67
2023/06/08 07:19:05;;;;;;;8.70;3.00;;;15.40;99.90;;;;;;5017991;28;20045;-66
2023/06/08 07:21:31;;;;;;;12.73;3.60;;;15.50;99.90;;;;;;5001446;28;20080;-67
2023/06/08 07:23:57;;;;;;;10.75;2.70;;;15.60;99.90;;;;;;5019918;28;20046;-68
2023/06/08 07:26:23;;;;;;;8.40;3.13;;;15.60;99.90;;;;;;5000189;28;20060;-69
2023/06/08 07:28:53;;;;;;;9.18;3.00;;;15.70;99.90;;;;;;5001249;28;20129;-67
2023/06/08 07:31:20;;;;;;;14.63;3.70;;;15.70;99.90;;;;;;5002972;28;20141;-67
2023/06/08 07:33:46;;;;;;;9.93;3.20;;;15.80;99.90;;;;;;4998609;28;20057;-68
2023/06/08 07:36:12;;;;;;;10.23;2.90;;;15.80;99.90;;;;;;5001241;28;20041;-68
2023/06/08 07:38:38;;;;;;;7.68;3.30;;;15.90;99.90;;;;;;4996286;28;20577;-70
2023/06/08 07:41:03;;;;;;;9.00;3.15;;;16.00;99.90;;;;;;4999014;28;20064;-68
2023/06/08 07:43:29;;;;;;;10.32;3.65;;;16.10;99.90;;;;;;5003636;28;20125;-69
2023/06/08 07:45:55;;;;;;;9.50;3.20;;;16.10;99.90;;;;;;4982901;28;20448;-67
2023/06/08 07:48:20;;;;;;;10.77;3.20;;;16.20;99.90;;;;;;5016828;28;20453;-69
2023/06/08 07:50:46;;;;;;;11.95;3.10;;;16.30;99.90;;;;;;4997612;28;20304;-72
2023/06/08 07:53:13;;;;;;;9.48;2.80;;;16.40;99.90;;;;;;4993762;28;20041;-69
2023/06/08 07:55:39;;;;;;;8.90;3.03;;;16.40;99.90;;;;;;4999268;28;20038;-67
2023/06/08 07:58:05;;;;;;;5.68;2.90;;;16.50;99.90;;;;;;5004701;28;20092;-72
2023/06/08 08:00:31;;;;;;;9.05;2.83;;;16.50;99.90;;;;;;4985816;28;20491;-71
2023/06/08 08:02:57;;;;;;;12.27;3.35;;;16.60;99.90;;;;;;4994617;28;20038;-66
2023/06/08 08:05:23;;;;;;;10.50;2.92;;;16.70;99.90;;;;;;5003658;28;20045;-66
2023/06/08 08:07:49;;;;;;;10.73;3.70;;;16.80;99.90;;;;;;5004413;28;20478;-69
2023/06/08 08:10:14;;;;;;;11.15;2.85;;;16.90;99.90;;;;;;4998003;28;20125;-66
2023/06/08 08:12:42;;;;;;;12.73;3.35;;;17.00;99.90;;;;;;5003097;28;20038;-66
2023/06/08 08:15:08;;;;;;;11.63;3.95;;;17.00;99.90;;;;;;5001444;28;20049;-67
2023/06/08 08:17:34;;;;;;;8.90;3.55;;;17.10;99.90;;;;;;5016271;28;20550;-67
2023/06/08 08:20:00;;;;;;;7.93;2.83;;;17.10;99.90;;;;;;4998043;28;20034;-66
2023/06/08 08:22:25;;;;;;;8.88;2.78;;;17.20;99.90;;;;;;4998688;28;20077;-67
2023/06/08 08:24:51;;;;;;;8.57;3.03;;;17.20;99.90;;;;;;4996208;28;20418;-66
2023/06/08 08:27:17;;;;;;;5.45;2.60;;;17.30;99.90;;;;;;5002626;28;20073;-66
2023/06/08 08:29:43;;;;;;;6.85;2.42;;;17.40;99.90;;;;;;5001935;28;20050;-66
2023/06/08 08:32:09;;;;;;;11.05;3.10;;;17.50;99.90;;;;;;5005934;28;20060;-66
2023/06/08 08:34:36;;;;;;;7.43;3.20;;;17.60;99.90;;;;;;5021603;28;20100;-66
2023/06/08 08:37:01;;;;;;;;;;;17.70;99.90;;;;;;5019428;28;20064;-67
2023/06/08 08:39:27;;;;;;;8.35;2.88;;;17.70;99.90;;;;;;5017891;28;19917;-66
2023/06/08 08:41:56;;;;;;;10.98;3.33;;;17.80;99.90;;;;;;5020783;28;20373;-66
2023/06/08 08:44:22;;;;;;;11.65;2.72;;;17.90;99.90;;;;;;5018003;28;20132;-66
2023/06/08 08:46:49;;;;;;;9.25;2.97;;;17.90;99.90;;;;;;5004323;28;20560;-66
2023/06/08 08:49:16;;;;;;;10.85;2.80;;;17.90;99.90;;;;;;5003443;28;20084;-67
2023/06/08 08:51:50;;;;;;;11.40;3.00;;;18.00;99.90;;;;;;5017951;28;20045;-67
2023/06/08 08:54:17;;;;;;;10.23;2.85;;;18.20;99.90;;;;;;4993362;28;20042;-67
2023/06/08 08:56:43;;;;;;;9.98;3.40;;;18.20;99.90;;;;;;5016620;28;20072;-67
2023/06/08 08:59:10;;;;;;;11.85;3.10;;;18.30;99.90;;;;;;5024713;28;20487;-67
2023/06/08 09:01:40;;;;;;;8.65;2.88;;;18.40;99.90;;;;;;5001461;28;20396;-67
2023/06/08 09:04:07;;;;;;;11.27;3.08;;;18.40;99.90;;;;;;5008765;28;20046;-66
2023/06/08 09:06:32;;;;;;;7.55;2.45;;;18.50;99.90;;;;;;5024224;28;20576;-67
2023/06/08 09:08:58;;;;;;;12.25;3.42;;;18.50;99.90;;;;;;5002232;28;20132;-66
2023/06/08 09:11:25;;;;;;;9.75;2.95;;;18.70;99.90;;;;;;5008312;28;20417;-67
2023/06/08 09:14:07;;;;;;;6.25;2.90;;;18.80;99.90;;;;;;5018742;28;20053;-66
2023/06/08 09:16:43;;;;;;;8.40;2.95;;;18.80;99.90;;;;;;5003630;28;20131;-67
2023/06/08 09:19:10;;;;;;;7.82;2.95;;;18.90;99.90;;;;;;5022250;28;20045;-66
2023/06/08 09:21:35;;;;;;;6.32;2.30;;;19.00;99.90;;;;;;5005835;28;20185;-66
2023/06/08 09:24:17;;;;;;;7.72;2.92;;;19.00;99.90;;;;;;5005789;28;20041;-67
2023/06/08 09:27:00;;;;;;;11.85;2.85;;;19.10;99.90;;;;;;5020788;28;20099;-66
2023/06/08 09:29:38;;;;;;;8.80;2.88;;;19.20;99.90;;;;;;5001515;28;20443;-66
2023/06/08 09:32:05;;;;;;;8.68;2.72;;;19.20;99.90;;;;;;5004369;28;20115;-66
2023/06/08 09:34:33;;;;;;;9.40;3.20;;;19.30;99.90;;;;;;5024852;28;20075;-67
2023/06/08 09:37:07;;;;;;;11.35;3.10;;;19.30;99.90;;;;;;5003870;28;20244;-66
2023/06/08 09:39:40;;;;;;;12.98;2.72;;;19.30;99.90;;;;;;5006931;28;20503;-66
2023/06/08 09:42:07;;;;;;;11.52;2.75;;;19.40;99.90;;;;;;4982645;28;20045;-66
2023/06/08 09:44:33;;;;;;;7.05;2.92;;;19.60;99.90;;;;;;5002410;28;20116;-67
2023/06/08 09:46:59;;;;;;;10.52;2.58;;;19.70;99.90;;;;;;5016276;28;20172;-66
2023/06/08 09:49:24;;;;;;;8.60;2.70;;;19.80;99.90;;;;;;5024220;28;20112;-66
2023/06/08 09:51:52;;;;;;;13.93;2.78;;;19.90;99.90;;;;;;5004600;28;20391;-67
2023/06/08 09:54:19;;;;;;;7.75;3.08;;;19.90;99.90;;;;;;5027935;28;20405;-67
2023/06/08 09:56:53;;;;;;;7.97;2.65;;;20.00;99.90;;;;;;5029808;28;20438;-67
2023/06/08 09:59:22;;;;;;;7.32;2.58;;;19.90;99.90;;;;;;5004222;28;20081;-66
2023/06/08 10:01:56;;;;;;;14.57;3.22;;;20.00;99.90;;;;;;4998257;28;20558;-66
2023/06/08 10:04:32;;;;;;;8.27;2.42;;;20.10;99.90;;;;;;5015949;28;20048;-66
2023/06/08 10:07:05;;;;;;;10.93;2.55;;;20.20;99.90;;;;;;5007119;28;20056;-67
2023/06/08 10:09:36;;;;;;;4.90;2.38;;;20.30;99.90;;;;;;5000475;28;20108;-66
2023/06/08 10:12:02;;;;;;;8.60;2.60;;;20.30;99.90;;;;;;5022242;28;20045;-67
2023/06/08 10:14:28;;;;;;;7.18;2.35;;;20.30;99.90;;;;;;5000374;28;20045;-66
2023/06/08 10:16:57;;;;;;;;;;;20.40;99.90;;;;;;5001892;28;20514;-67
2023/06/08 10:19:23;;;;;;;7.10;2.40;;;20.50;99.90;;;;;;5020221;28;19916;-66
2023/06/08 10:21:51;;;;;;;5.05;2.55;;;20.50;99.90;;;;;;4999334;28;20462;-67
2023/06/08 10:24:20;;;;;;;5.97;2.72;;;20.50;99.90;;;;;;4996997;28;20069;-67
2023/06/08 10:26:50;;;;;;;9.45;2.50;;;20.50;99.90;;;;;;5003042;28;20053;-67
2023/06/08 10:29:16;;;;;;;8.43;3.17;;;20.50;99.90;;;;;;5007554;28;20118;-67
2023/06/08 10:31:47;;;;;;;5.30;2.50;;;20.50;99.90;;;;;;5030533;28;20457;-67
2023/06/08 10:34:14;;;;;;;7.38;2.00;;;20.50;99.90;;;;;;5025607;28;20045;-66
2023/06/08 10:36:42;;;;;;;9.98;2.72;;;20.70;99.90;;;;;;5011587;28;20053;-67
2023/06/08 10:39:16;;;;;;;11.32;2.88;;;20.80;99.90;;;;;;4992898;28;20123;-66
2023/06/08 10:41:53;;;;;;;12.18;2.95;;;20.80;99.90;;;;;;4992489;28;20118;-67
2023/06/08 10:44:32;;;;;;;8.23;2.88;;;21.00;99.90;;;;;;5015180;28;20060;-66
2023/06/08 10:47:04;;;;;;;6.43;2.13;;;20.90;99.90;;;;;;5022618;28;20486;-67
2023/06/08 10:49:31;;;;;;;8.35;2.20;;;21.00;99.90;;;;;;5015606;28;20109;-66
2023/06/08 10:51:58;;;;;;;9.90;2.17;;;21.00;99.90;;;;;;5011766;28;20103;-67
2023/06/08 10:54:24;;;;;;;11.40;2.90;;;21.10;99.90;;;;;;5003050;28;20037;-67
2023/06/08 10:56:54;;;;;;;9.07;1.95;;;21.20;99.90;;;;;;5014774;28;20042;-68
2023/06/08 10:59:33;;;;;;;5.43;2.13;;;21.40;99.90;;;;;;5003265;28;20048;-66
2023/06/08 11:02:03;;;;;;;9.20;2.67;;;21.40;99.90;;;;;;5019215;28;20099;-67
2023/06/08 11:04:30;;;;;;;7.75;2.28;;;21.40;99.90;;;;;;5008816;28;20045;-67
2023/06/08 11:07:03;;;;;;;5.35;2.25;;;21.30;99.90;;;;;;5025878;28;20049;-66
2023/06/08 11:09:35;;;;;;;8.48;2.10;;;21.40;99.90;;;;;;5029291;28;20034;-67
2023/06/08 11:12:01;;;;;;;8.40;2.40;;;21.40;99.90;;;;;;5003539;28;20065;-66
2023/06/08 11:14:27;;;;;;;4.80;1.85;;;21.50;99.90;;;;;;5011189;28;20038;-66
2023/06/08 11:16:54;;;;;;;6.40;2.17;;;21.50;99.90;;;;;;5017012;28;20482;-66
2023/06/08 11:19:24;;;;;;;8.40;2.85;;;21.70;99.90;;;;;;4998360;28;20125;-67
2023/06/08 11:21:53;;;;;;;6.22;2.00;;;21.80;99.90;;;;;;4996491;28;20095;-67
2023/06/08 11:24:20;;;;;;;9.40;2.35;;;21.90;99.90;;;;;;5020829;28;20046;-67
2023/06/08 11:26:47;;;;;;;10.32;2.75;;;22.00;99.90;;;;;;4998812;28;20399;-67
2023/06/08 11:29:13;;;;;;;6.28;1.95;;;22.10;99.90;;;;;;4998067;28;20119;-66
2023/06/08 11:31:42;;;;;;;;;;;22.20;99.90;;;;;;5008357;28;20045;-67
2023/06/08 11:34:13;;;;;;;8.90;2.17;;;22.30;99.90;;;;;;5016665;28;20396;-66
2023/06/08 11:36:41;;;;;;;9.57;2.60;;;22.30;99.90;;;;;;4999907;28;20412;-66
2023/06/08 11:39:07;;;;;;;10.18;2.65;;;22.30;99.90;;;;;;5018275;28;20046;-67
2023/06/08 11:41:33;;;;;;;;;;;22.40;99.90;;;;;;5007759;28;20482;-67
2023/06/08 11:43:59;;;;;;;8.50;2.50;;;22.30;99.90;;;;;;4994275;28;19927;-67
2023/06/08 11:46:26;;;;;;;;;;;22.20;99.90;;;;;;4987289;28;20053;-67
2023/06/08 11:48:52;;;;;;;;;;;22.20;99.90;;;;;;5023450;28;19947;-67
2023/06/08 11:51:18;;;;;;;6.03;2.03;;;22.10;99.90;;;;;;5011731;28;19921;-67
2023/06/08 11:53:46;;;;;;;10.48;2.70;;;22.20;99.90;;;;;;5024818;28;20041;-66
2023/06/08 11:56:12;;;;;;;6.30;2.70;;;22.20;99.90;;;;;;4998881;28;20042;-66
2023/06/08 11:58:39;;;;;;;;;;;22.20;99.90;;;;;;5008743;28;20053;-67
2023/06/08 12:01:11;;;;;;;5.65;2.55;;;22.10;99.90;;;;;;5006535;28;19916;-67
2023/06/08 12:03:47;;;;;;;11.23;2.70;;;22.10;99.90;;;;;;5025114;28;20072;-67
2023/06/08 12:06:15;;;;;;;5.78;3.17;;;22.20;99.90;;;;;;5007308;28;20112;-67
2023/06/08 12:08:41;;;;;;;8.15;3.35;;;22.10;99.90;;;;;;4995861;28;20103;-67
2023/06/08 12:11:11;;;;;;;;;;;22.20;99.90;;;;;;5024832;28;20395;-67
2023/06/08 12:13:41;;;;;;;8.73;3.38;;;22.20;99.90;;;;;;5029334;28;19917;-67
2023/06/08 12:16:09;;;;;;;8.93;3.03;;;22.30;99.90;;;;;;5019984;28;20075;-67
2023/06/08 12:18:43;;;;;;;6.40;2.78;;;22.40;99.90;;;;;;5021014;28;20038;-67
2023/06/08 12:21:13;;;;;;;10.82;2.83;;;22.50;99.90;;;;;;5016491;28;20076;-67
2023/06/08 12:23:40;;;;;;;9.38;2.60;;;22.60;99.90;;;;;;5010944;22;20032;-67
2023/06/08 12:26:06;;;;;;;9.45;2.78;;;22.60;99.90;;;;;;5002579;28;20100;-68
2023/06/08 12:28:32;;;;;;;8.20;2.53;;;22.70;99.90;;;;;;5008820;28;20157;-68
2023/06/08 12:31:00;;;;;;;6.10;2.30;;;22.70;99.90;;;;;;5007284;28;20232;-67
2023/06/08 12:33:27;;;;;;;10.75;2.30;;;22.80;99.90;;;;;;4983392;28;20045;-67
2023/06/08 12:35:56;;;;;;;8.63;2.35;;;23.00;99.90;;;;;;5006938;28;20524;-68
2023/06/08 12:38:22;;;;;;;7.18;2.17;;;23.10;99.90;;;;;;5003921;28;20041;-68
2023/06/08 12:40:51;;;;;;;6.43;2.58;;;23.20;99.90;;;;;;4994529;28;20045;-67
2023/06/08 12:43:18;;;;;;;8.27;2.10;;;23.20;99.90;;;;;;5004096;28;20507;-67
2023/06/08 12:45:48;;;;;;;7.22;2.17;;;23.20;99.90;;;;;;5010874;28;20390;-67
2023/06/08 12:48:14;;;;;;;5.03;1.98;;;23.30;99.90;;;;;;5005500;28;20113;-67
2023/06/08 12:50:40;;;;;;;5.15;1.95;;;23.30;99.90;;;;;;5003569;28;20074;-68